createdAt,value
2022-11-29T00:00:07.087Z,7.96
2022-11-29T00:01:07.552Z,7.98
2022-11-29T00:02:07.516Z,8.03
2022-11-29T00:03:10.177Z,8.04
2022-11-29T00:04:07.155Z,8.09
2022-11-29T00:05:07.088Z,8.11
2022-11-29T00:06:07.085Z,8.14
2022-11-29T00:07:07.568Z,8.13
2022-11-29T00:08:07.228Z,8.03
2022-11-29T00:09:07.091Z,7.96
2022-11-29T00:10:07.045Z,7.96
2022-11-29T00:11:07.090Z,7.97
2022-11-29T00:12:07.506Z,7.92
2022-11-29T00:13:07.158Z,7.94
2022-11-29T00:14:10.097Z,7.98
2022-11-29T00:15:07.147Z,7.97
2022-11-29T00:16:07.514Z,7.97
2022-11-29T00:17:07.441Z,7.96
2022-11-29T00:18:07.195Z,7.89
2022-11-29T00:19:07.175Z,7.85
2022-11-29T00:20:07.228Z,7.9
2022-11-29T00:21:07.172Z,7.94
2022-11-29T00:22:07.511Z,7.96
2022-11-29T00:23:07.175Z,8.01
2022-11-29T00:24:07.097Z,8.04
2022-11-29T00:25:10.073Z,8
2022-11-29T00:26:07.164Z,8
2022-11-29T00:27:07.511Z,8.06
2022-11-29T00:28:07.286Z,8.11
2022-11-29T00:29:07.062Z,8.1
2022-11-29T00:30:59.813Z,8.12
2022-11-29T00:31:07.472Z,8.12
2022-11-29T00:32:07.517Z,8.13
2022-11-29T00:33:07.166Z,8.11
2022-11-29T00:34:07.078Z,8.07
2022-11-29T00:35:09.854Z,8.03
2022-11-29T00:36:10.086Z,7.99
2022-11-29T00:37:07.442Z,8
2022-11-29T00:38:07.575Z,7.98
2022-11-29T00:39:07.166Z,7.88
2022-11-29T00:40:07.103Z,7.91
2022-11-29T00:41:07.217Z,7.92
2022-11-29T00:42:07.444Z,7.91
2022-11-29T00:43:07.259Z,7.89
2022-11-29T00:44:07.192Z,7.82
2022-11-29T00:45:07.203Z,7.85
2022-11-29T00:46:07.494Z,7.82
2022-11-29T00:47:13.194Z,7.8
2022-11-29T00:48:07.187Z,7.81
2022-11-29T00:49:07.133Z,7.84
2022-11-29T00:50:07.079Z,7.88
2022-11-29T00:51:07.062Z,7.85
2022-11-29T00:52:07.519Z,7.81
2022-11-29T00:53:07.170Z,7.72
2022-11-29T00:54:07.070Z,7.65
2022-11-29T00:55:07.157Z,7.67
2022-11-29T00:56:07.088Z,7.7
2022-11-29T00:57:07.657Z,7.75
2022-11-29T00:58:10.101Z,7.68
2022-11-29T00:59:07.149Z,7.62
2022-11-29T01:00:07.164Z,7.64
2022-11-29T01:01:07.543Z,7.66
2022-11-29T01:02:07.515Z,7.67
2022-11-29T01:03:07.054Z,7.68
2022-11-29T01:04:07.045Z,7.69
2022-11-29T01:05:07.092Z,7.71
2022-11-29T01:06:07.086Z,7.7
2022-11-29T01:07:07.451Z,7.71
2022-11-29T01:08:07.190Z,7.72
2022-11-29T01:09:11.493Z,7.72
2022-11-29T01:10:07.266Z,7.74
2022-11-29T01:11:07.100Z,7.73
2022-11-29T01:12:07.504Z,7.73
2022-11-29T01:13:07.159Z,7.75
2022-11-29T01:14:07.228Z,7.78
2022-11-29T01:15:07.217Z,7.74
2022-11-29T01:16:07.513Z,7.73
2022-11-29T01:17:07.607Z,7.78
2022-11-29T01:18:07.155Z,7.76
2022-11-29T01:19:07.082Z,7.79
2022-11-29T01:20:10.075Z,7.82
2022-11-29T01:21:07.191Z,7.89
2022-11-29T01:22:07.514Z,7.92
2022-11-29T01:23:07.159Z,7.9
2022-11-29T01:24:07.071Z,7.89
2022-11-29T01:25:07.079Z,7.89
2022-11-29T01:26:07.080Z,7.91
2022-11-29T01:27:07.515Z,7.93
2022-11-29T01:28:07.158Z,7.93
2022-11-29T01:29:07.064Z,7.92
2022-11-29T01:30:07.072Z,7.94
2022-11-29T01:31:13.273Z,7.91
2022-11-29T01:32:07.461Z,7.95
2022-11-29T01:33:07.156Z,7.93
2022-11-29T01:34:07.085Z,7.91
2022-11-29T01:35:07.091Z,7.91
2022-11-29T01:36:07.073Z,7.93
2022-11-29T01:37:07.443Z,7.94
2022-11-29T01:38:07.078Z,7.97
2022-11-29T01:39:07.102Z,8.02
2022-11-29T01:40:09.967Z,7.98
2022-11-29T01:41:07.186Z,7.96
2022-11-29T01:42:13.177Z,7.96
2022-11-29T01:43:07.178Z,7.98
2022-11-29T01:44:07.072Z,8.02
2022-11-29T01:45:07.070Z,8.02
2022-11-29T01:46:07.609Z,8.06
2022-11-29T01:47:07.448Z,8.05
2022-11-29T01:48:07.102Z,8.05
2022-11-29T01:49:07.163Z,8.05
2022-11-29T01:50:07.290Z,7.96
2022-11-29T01:51:07.085Z,7.93
2022-11-29T01:52:07.444Z,7.93
2022-11-29T01:53:10.084Z,7.96
2022-11-29T01:54:07.170Z,7.98
2022-11-29T01:55:07.075Z,7.98
2022-11-29T01:56:07.172Z,7.97
2022-11-29T01:57:07.523Z,7.98
2022-11-29T01:58:07.227Z,8.01
2022-11-29T01:59:07.087Z,8
2022-11-29T02:00:07.097Z,7.99
2022-11-29T02:01:07.549Z,7.97
2022-11-29T02:02:07.497Z,7.94
2022-11-29T02:03:07.190Z,7.92
2022-11-29T02:04:10.152Z,7.95
2022-11-29T02:05:07.296Z,7.92
2022-11-29T02:06:07.141Z,7.87
2022-11-29T02:07:07.535Z,7.81
2022-11-29T02:08:07.171Z,7.82
2022-11-29T02:09:07.081Z,7.81
2022-11-29T02:10:07.093Z,7.78
2022-11-29T02:11:08.763Z,7.8
2022-11-29T02:12:07.442Z,7.8
2022-11-29T02:13:07.314Z,7.75
2022-11-29T02:14:07.060Z,7.75
2022-11-29T02:15:10.182Z,7.77
2022-11-29T02:16:07.456Z,7.8
2022-11-29T02:17:07.547Z,7.85
2022-11-29T02:18:07.188Z,7.9
2022-11-29T02:19:07.072Z,7.93
2022-11-29T02:20:07.078Z,7.95
2022-11-29T02:21:07.217Z,7.98
2022-11-29T02:22:07.435Z,8
2022-11-29T02:23:07.199Z,7.99
2022-11-29T02:24:07.079Z,8.04
2022-11-29T02:25:07.088Z,8.06
2022-11-29T02:26:10.126Z,8.1
2022-11-29T02:27:07.432Z,8.11
2022-11-29T02:28:07.230Z,8.1
2022-11-29T02:29:07.213Z,8.12
2022-11-29T02:30:07.081Z,8.11
2022-11-29T02:31:07.589Z,8.1
2022-11-29T02:32:07.435Z,8.11
2022-11-29T02:33:07.069Z,8.05
2022-11-29T02:34:07.210Z,8.07
2022-11-29T02:35:07.164Z,8.08
2022-11-29T02:36:07.080Z,8.1
2022-11-29T02:37:13.197Z,8.05
2022-11-29T02:38:07.182Z,8.04
2022-11-29T02:39:07.070Z,8
2022-11-29T02:40:07.082Z,8.01
2022-11-29T02:41:07.086Z,8.01
2022-11-29T02:42:07.518Z,8
2022-11-29T02:43:07.084Z,8
2022-11-29T02:44:07.087Z,8.03
2022-11-29T02:45:07.091Z,8.01
2022-11-29T02:46:07.570Z,7.98
2022-11-29T02:47:07.440Z,7.91
2022-11-29T02:48:10.093Z,7.88
2022-11-29T02:49:07.186Z,7.88
2022-11-29T02:50:07.133Z,7.85
2022-11-29T02:51:07.087Z,7.84
2022-11-29T02:52:07.511Z,7.82
2022-11-29T02:53:07.148Z,7.88
2022-11-29T02:54:07.069Z,7.86
2022-11-29T02:55:07.078Z,7.84
2022-11-29T02:56:07.069Z,7.82
2022-11-29T02:57:07.507Z,7.86
2022-11-29T02:58:07.173Z,7.86
2022-11-29T02:59:10.104Z,7.83
2022-11-29T03:00:07.170Z,7.84
2022-11-29T03:01:07.557Z,7.88
2022-11-29T03:02:07.504Z,7.89
2022-11-29T03:03:07.147Z,7.89
2022-11-29T03:04:07.075Z,7.89
2022-11-29T03:05:07.079Z,7.9
2022-11-29T03:06:07.089Z,7.94
2022-11-29T03:07:07.451Z,7.96
2022-11-29T03:08:07.157Z,7.97
2022-11-29T03:09:07.066Z,7.93
2022-11-29T03:10:10.110Z,7.91
2022-11-29T03:11:07.213Z,7.87
2022-11-29T03:12:07.516Z,7.87
2022-11-29T03:13:07.185Z,7.9
2022-11-29T03:14:07.073Z,7.9
2022-11-29T03:15:07.084Z,7.93
2022-11-29T03:16:07.519Z,7.97
2022-11-29T03:17:07.529Z,7.96
2022-11-29T03:18:07.163Z,7.95
2022-11-29T03:19:07.087Z,7.96
2022-11-29T03:20:07.063Z,7.99
2022-11-29T03:21:10.069Z,8
2022-11-29T03:22:07.459Z,7.98
2022-11-29T03:23:07.143Z,8.02
2022-11-29T03:24:07.092Z,8.04
2022-11-29T03:25:07.063Z,8.08
2022-11-29T03:26:07.183Z,8.09
2022-11-29T03:27:07.436Z,8.11
2022-11-29T03:28:07.240Z,8.14
2022-11-29T03:29:07.275Z,8.09
2022-11-29T03:30:07.171Z,8.04
2022-11-29T03:31:07.602Z,8.07
2022-11-29T03:32:10.570Z,8.09
2022-11-29T03:33:07.173Z,8.11
2022-11-29T03:34:07.202Z,8.11
2022-11-29T03:35:07.096Z,8.08
2022-11-29T03:36:07.066Z,8.05
2022-11-29T03:37:07.530Z,8.05
2022-11-29T03:38:10.089Z,8.05
2022-11-29T03:39:07.130Z,8.01
2022-11-29T03:40:07.072Z,7.95
2022-11-29T03:41:07.071Z,7.86
2022-11-29T03:42:07.444Z,7.86
2022-11-29T03:43:07.149Z,7.94
2022-11-29T03:44:07.086Z,8.03
2022-11-29T03:45:07.063Z,8.08
2022-11-29T03:46:07.160Z,8.12
2022-11-29T03:47:07.510Z,8.14
2022-11-29T03:48:07.185Z,8.15
2022-11-29T03:49:10.050Z,8.19
2022-11-29T03:50:07.294Z,8.22
2022-11-29T03:51:07.088Z,8.22
2022-11-29T03:52:07.588Z,8.23
2022-11-29T03:53:07.172Z,8.28
2022-11-29T03:54:07.071Z,8.31
2022-11-29T03:55:07.155Z,8.32
2022-11-29T03:56:07.077Z,8.38
2022-11-29T03:57:07.511Z,8.41
2022-11-29T03:58:07.145Z,8.41
2022-11-29T03:59:07.088Z,8.41
2022-11-29T04:00:07.091Z,8.41
2022-11-29T04:01:07.095Z,8.42
2022-11-29T04:02:07.511Z,8.39
2022-11-29T04:03:07.195Z,8.36
2022-11-29T04:04:07.070Z,8.36
2022-11-29T04:05:10.098Z,8.35
2022-11-29T04:06:07.162Z,8.32
2022-11-29T04:07:07.510Z,8.32
2022-11-29T04:08:07.266Z,8.36
2022-11-29T04:09:07.076Z,8.37
2022-11-29T04:10:07.244Z,8.41
2022-11-29T04:11:07.134Z,8.42
2022-11-29T04:12:07.120Z,8.47
2022-11-29T04:13:07.089Z,8.48
2022-11-29T04:14:07.275Z,8.44
2022-11-29T04:15:08.782Z,8.44
2022-11-29T04:16:10.119Z,8.46
2022-11-29T04:17:07.574Z,8.47
2022-11-29T04:18:07.488Z,8.49
2022-11-29T04:19:07.150Z,8.49
2022-11-29T04:20:07.085Z,8.5
2022-11-29T04:21:07.068Z,8.51
2022-11-29T04:22:07.067Z,8.49
2022-11-29T04:23:07.537Z,8.48
2022-11-29T04:24:07.142Z,8.49
2022-11-29T04:25:07.089Z,8.5
2022-11-29T04:26:07.071Z,8.52
2022-11-29T04:27:10.096Z,8.52
2022-11-29T04:28:07.447Z,8.44
2022-11-29T04:29:07.442Z,8.36
2022-11-29T04:30:07.218Z,8.32
2022-11-29T04:31:07.099Z,8.36
2022-11-29T04:32:07.561Z,8.33
2022-11-29T04:33:07.434Z,8.29
2022-11-29T04:34:07.083Z,8.26
2022-11-29T04:35:07.077Z,8.29
2022-11-29T04:36:07.061Z,8.25
2022-11-29T04:37:07.074Z,8.23
2022-11-29T04:38:13.206Z,8.25
2022-11-29T04:39:07.155Z,8.28
2022-11-29T04:40:07.088Z,8.3
2022-11-29T04:41:07.084Z,8.34
2022-11-29T04:42:07.082Z,8.31
2022-11-29T04:43:07.512Z,8.31
2022-11-29T04:44:07.065Z,8.34
2022-11-29T04:45:07.068Z,8.34
2022-11-29T04:46:07.157Z,8.34
2022-11-29T04:47:07.508Z,8.32
2022-11-29T04:48:07.443Z,8.36
2022-11-29T04:49:10.131Z,8.36
2022-11-29T04:50:07.152Z,8.37
2022-11-29T04:51:07.151Z,8.38
2022-11-29T04:52:07.062Z,8.42
2022-11-29T04:53:07.502Z,8.42
2022-11-29T04:54:07.147Z,8.46
2022-11-29T04:55:07.070Z,8.47
2022-11-29T04:56:07.087Z,8.43
2022-11-29T04:57:07.171Z,8.45
2022-11-29T04:58:07.515Z,8.46
2022-11-29T04:59:07.165Z,8.48
2022-11-29T05:00:10.544Z,8.47
2022-11-29T05:01:07.187Z,8.4
2022-11-29T05:02:07.545Z,8.37
2022-11-29T05:03:07.494Z,8.4
2022-11-29T05:04:07.169Z,8.41
2022-11-29T05:05:07.075Z,8.4
2022-11-29T05:06:07.106Z,8.41
2022-11-29T05:07:07.068Z,8.42
2022-11-29T05:08:07.429Z,8.38
2022-11-29T05:09:07.191Z,8.38
2022-11-29T05:10:07.048Z,8.38
2022-11-29T05:11:10.091Z,8.37
2022-11-29T05:12:07.278Z,8.36
2022-11-29T05:13:07.527Z,8.36
2022-11-29T05:14:07.160Z,8.36
2022-11-29T05:15:07.069Z,8.37
2022-11-29T05:16:07.153Z,8.37
2022-11-29T05:17:07.455Z,8.33
2022-11-29T05:18:07.532Z,8.3
2022-11-29T05:19:07.276Z,8.3
2022-11-29T05:20:07.046Z,8.32
2022-11-29T05:21:07.061Z,8.32
2022-11-29T05:22:10.113Z,8.33
2022-11-29T05:23:07.175Z,8.29
2022-11-29T05:24:07.183Z,8.27
2022-11-29T05:25:07.083Z,8.22
2022-11-29T05:26:07.069Z,8.25
2022-11-29T05:27:07.125Z,8.26
2022-11-29T05:28:10.236Z,8.3
2022-11-29T05:29:07.181Z,8.33
2022-11-29T05:30:07.144Z,8.35
2022-11-29T05:31:07.122Z,8.38
2022-11-29T05:32:07.248Z,8.4
2022-11-29T05:33:13.229Z,8.38
2022-11-29T05:34:07.317Z,8.39
2022-11-29T05:35:07.155Z,8.39
2022-11-29T05:36:07.089Z,8.41
2022-11-29T05:37:07.167Z,8.45
2022-11-29T05:38:07.079Z,8.48
2022-11-29T05:39:13.120Z,8.49
2022-11-29T05:40:07.236Z,8.53
2022-11-29T05:41:07.091Z,8.51
2022-11-29T05:42:07.096Z,8.52
2022-11-29T05:43:07.296Z,8.53
2022-11-29T05:44:07.435Z,8.57
2022-11-29T05:45:07.106Z,8.56
2022-11-29T05:46:07.116Z,8.57
2022-11-29T05:47:07.067Z,8.58
2022-11-29T05:48:07.121Z,8.58
2022-11-29T05:49:07.178Z,8.58
2022-11-29T05:50:10.128Z,8.63
2022-11-29T05:51:07.135Z,8.67
2022-11-29T05:52:07.087Z,8.65
2022-11-29T05:53:07.084Z,8.66
2022-11-29T05:54:07.543Z,8.64
2022-11-29T05:55:07.177Z,8.63
2022-11-29T05:56:07.079Z,8.63
2022-11-29T05:57:07.188Z,8.63
2022-11-29T05:58:07.104Z,8.62
2022-11-29T05:59:07.509Z,8.56
2022-11-29T06:00:07.135Z,8.53
2022-11-29T06:01:10.197Z,8.55
2022-11-29T06:02:07.249Z,8.56
2022-11-29T06:03:07.589Z,8.58
2022-11-29T06:04:13.251Z,8.6
2022-11-29T06:05:07.168Z,8.61
2022-11-29T06:06:07.071Z,8.57
2022-11-29T06:07:07.083Z,8.52
2022-11-29T06:08:07.111Z,8.5
2022-11-29T06:09:07.440Z,8.53
2022-11-29T06:10:07.151Z,8.56
2022-11-29T06:11:07.063Z,8.57
2022-11-29T06:12:10.098Z,8.58
2022-11-29T06:13:07.160Z,8.61
2022-11-29T06:14:07.566Z,8.61
2022-11-29T06:15:07.186Z,8.61
2022-11-29T06:16:07.175Z,8.63
2022-11-29T06:17:07.090Z,8.66
2022-11-29T06:18:07.436Z,8.66
2022-11-29T06:19:07.502Z,8.63
2022-11-29T06:20:07.220Z,8.61
2022-11-29T06:21:07.067Z,8.64
2022-11-29T06:22:07.085Z,8.62
2022-11-29T06:23:10.053Z,8.64
2022-11-29T06:24:07.429Z,8.63
2022-11-29T06:25:07.071Z,8.64
2022-11-29T06:26:07.082Z,8.51
2022-11-29T06:27:07.068Z,8.5
2022-11-29T06:28:07.084Z,8.47
2022-11-29T06:29:07.471Z,8.48
2022-11-29T06:30:07.089Z,8.51
2022-11-29T06:31:07.099Z,8.53
2022-11-29T06:32:07.072Z,8.54
2022-11-29T06:33:07.450Z,8.58
2022-11-29T06:34:10.062Z,8.6
2022-11-29T06:35:07.302Z,8.63
2022-11-29T06:36:07.141Z,8.62
2022-11-29T06:37:07.081Z,8.62
2022-11-29T06:38:07.165Z,8.64
2022-11-29T06:39:07.505Z,8.65
2022-11-29T06:40:07.079Z,8.66
2022-11-29T06:41:07.072Z,8.69
2022-11-29T06:42:07.068Z,8.7
2022-11-29T06:43:07.097Z,8.71
2022-11-29T06:44:07.508Z,8.69
2022-11-29T06:45:10.086Z,8.66
2022-11-29T06:46:07.161Z,8.62
2022-11-29T06:47:07.064Z,8.61
2022-11-29T06:48:07.565Z,8.64
2022-11-29T06:49:07.440Z,8.64
2022-11-29T06:50:07.283Z,8.67
2022-11-29T06:51:07.080Z,8.67
2022-11-29T06:52:07.070Z,8.63
2022-11-29T06:53:07.084Z,8.62
2022-11-29T06:54:07.718Z,8.62
2022-11-29T06:55:07.158Z,8.54
2022-11-29T06:56:10.090Z,8.42
2022-11-29T06:57:07.169Z,8.36
2022-11-29T06:58:07.072Z,8.36
2022-11-29T06:59:07.551Z,8.4
2022-11-29T07:00:07.168Z,8.42
2022-11-29T07:01:07.241Z,8.49
2022-11-29T07:02:07.150Z,8.5
2022-11-29T07:03:07.509Z,8.51
2022-11-29T07:04:07.437Z,8.54
2022-11-29T07:05:07.197Z,8.56
2022-11-29T07:06:07.081Z,8.54
2022-11-29T07:07:10.089Z,8.53
2022-11-29T07:08:07.190Z,8.53
2022-11-29T07:09:07.512Z,8.54
2022-11-29T07:10:11.997Z,8.52
2022-11-29T07:11:07.077Z,8.51
2022-11-29T07:12:07.067Z,8.54
2022-11-29T07:13:07.076Z,8.55
2022-11-29T07:14:07.442Z,8.59
2022-11-29T07:15:07.074Z,8.62
2022-11-29T07:16:07.290Z,8.59
2022-11-29T07:17:07.164Z,8.61
2022-11-29T07:18:10.495Z,8.6
2022-11-29T07:19:07.496Z,8.57
2022-11-29T07:20:07.136Z,8.54
2022-11-29T07:21:07.086Z,8.51
2022-11-29T07:22:07.070Z,8.49
2022-11-29T07:23:07.084Z,8.51
2022-11-29T07:24:07.444Z,8.55
2022-11-29T07:25:07.085Z,8.57
2022-11-29T07:26:07.079Z,8.57
2022-11-29T07:27:07.083Z,8.6
2022-11-29T07:28:07.062Z,8.65
2022-11-29T07:29:13.137Z,8.68
2022-11-29T07:30:07.182Z,8.71
2022-11-29T07:31:07.166Z,8.69
2022-11-29T07:32:07.071Z,8.69
2022-11-29T07:33:07.514Z,8.71
2022-11-29T07:34:07.442Z,8.75
2022-11-29T07:35:07.102Z,8.79
2022-11-29T07:36:07.216Z,8.8
2022-11-29T07:37:07.103Z,8.85
2022-11-29T07:38:07.082Z,8.83
2022-11-29T07:39:07.516Z,8.84
2022-11-29T07:40:10.052Z,8.83
2022-11-29T07:41:07.188Z,8.87
2022-11-29T07:42:07.079Z,8.89
2022-11-29T07:43:07.183Z,8.9
2022-11-29T07:44:07.157Z,8.91
2022-11-29T07:45:07.507Z,8.92
2022-11-29T07:46:07.088Z,8.95
2022-11-29T07:47:07.132Z,9.03
2022-11-29T07:48:07.510Z,9.09
2022-11-29T07:49:07.449Z,9.1
2022-11-29T07:50:07.164Z,9.12
2022-11-29T07:51:10.097Z,9.15
2022-11-29T07:52:07.174Z,9.16
2022-11-29T07:53:07.089Z,9.18
2022-11-29T07:54:07.508Z,9.2
2022-11-29T07:55:07.191Z,9.23
2022-11-29T07:56:07.144Z,9.25
2022-11-29T07:57:07.088Z,9.29
2022-11-29T07:58:07.083Z,9.3
2022-11-29T07:59:07.565Z,9.29
2022-11-29T08:00:07.179Z,9.26
2022-11-29T08:01:07.163Z,9.23
2022-11-29T08:02:11.844Z,9.25
2022-11-29T08:03:07.443Z,9.3
2022-11-29T08:04:07.549Z,9.31
2022-11-29T08:05:07.267Z,9.32
2022-11-29T08:06:07.068Z,9.37
2022-11-29T08:07:07.073Z,9.4
2022-11-29T08:08:07.083Z,9.41
2022-11-29T08:09:07.216Z,9.41
2022-11-29T08:10:07.533Z,9.37
2022-11-29T08:11:07.075Z,9.35
2022-11-29T08:12:07.064Z,9.31
2022-11-29T08:13:10.070Z,9.32
2022-11-29T08:14:07.432Z,9.34
2022-11-29T08:15:07.077Z,9.34
2022-11-29T08:16:07.110Z,9.32
2022-11-29T08:17:07.060Z,9.32
2022-11-29T08:18:07.502Z,9.36
2022-11-29T08:19:07.434Z,9.39
2022-11-29T08:20:07.089Z,9.42
2022-11-29T08:21:07.167Z,9.42
2022-11-29T08:22:07.090Z,9.42
2022-11-29T08:23:08.678Z,9.41
2022-11-29T08:24:10.408Z,9.42
2022-11-29T08:25:07.166Z,9.44
2022-11-29T08:26:07.158Z,9.42
2022-11-29T08:27:07.075Z,9.41
2022-11-29T08:28:07.070Z,9.43
2022-11-29T08:29:07.509Z,9.45
2022-11-29T08:30:07.074Z,9.47
2022-11-29T08:31:07.082Z,9.51
2022-11-29T08:32:07.188Z,9.47
2022-11-29T08:33:07.507Z,9.46
2022-11-29T08:34:07.439Z,9.42
2022-11-29T08:35:10.047Z,9.43
2022-11-29T08:36:07.157Z,9.42
2022-11-29T08:37:07.255Z,9.43
2022-11-29T08:38:07.171Z,9.44
2022-11-29T08:39:09.204Z,9.46
2022-11-29T08:40:07.162Z,9.44
2022-11-29T08:41:07.085Z,9.45
2022-11-29T08:42:07.158Z,9.46
2022-11-29T08:43:07.082Z,9.48
2022-11-29T08:44:07.517Z,9.5
2022-11-29T08:45:07.156Z,9.48
2022-11-29T08:46:07.115Z,9.43
2022-11-29T08:47:07.116Z,9.39
2022-11-29T08:48:07.511Z,9.35
2022-11-29T08:49:07.448Z,9.26
2022-11-29T08:50:07.157Z,9.29
2022-11-29T08:51:10.122Z,9.34
2022-11-29T08:52:07.169Z,9.32
2022-11-29T08:53:07.092Z,9.28
2022-11-29T08:54:07.089Z,9.25
2022-11-29T08:55:07.443Z,9.25
2022-11-29T08:56:31.853Z,9.32
2022-11-29T08:58:45.341Z,9.22
2022-11-29T08:59:45.718Z,9.24
2022-11-29T09:00:45.546Z,9.26
2022-11-29T09:01:45.331Z,9.24
2022-11-29T09:02:45.733Z,9.25
2022-11-29T09:03:48.356Z,9.32
2022-11-29T09:04:45.835Z,9.33
2022-11-29T09:05:45.411Z,9.32
2022-11-29T09:06:45.282Z,9.33
2022-11-29T09:07:45.379Z,9.36
2022-11-29T09:08:45.288Z,9.38
2022-11-29T09:09:45.776Z,9.43
2022-11-29T09:10:45.346Z,9.46
2022-11-29T09:11:49.086Z,9.48
2022-11-29T09:12:45.454Z,9.48
2022-11-29T09:13:45.370Z,9.48
2022-11-29T09:14:46.102Z,9.47
2022-11-29T09:15:45.352Z,9.45
2022-11-29T09:16:45.338Z,9.47
2022-11-29T09:17:45.656Z,9.52
2022-11-29T09:18:51.264Z,9.57
2022-11-29T09:19:51.456Z,9.61
2022-11-29T09:20:45.347Z,9.62
2022-11-29T09:21:45.421Z,9.63
2022-11-29T09:22:45.287Z,9.62
2022-11-29T09:23:45.277Z,9.64
2022-11-29T09:24:46.110Z,9.58
2022-11-29T09:25:45.262Z,9.56
2022-11-29T09:26:45.297Z,9.62
2022-11-29T09:27:45.372Z,9.64
2022-11-29T09:28:45.312Z,9.66
2022-11-29T09:29:45.305Z,9.68
2022-11-29T09:30:48.428Z,9.69
2022-11-29T09:31:45.457Z,9.7
2022-11-29T09:32:45.733Z,9.71
2022-11-29T09:33:45.399Z,9.67
2022-11-29T09:34:46.011Z,9.64
2022-11-29T09:35:45.321Z,9.66
2022-11-29T09:36:45.290Z,9.68
2022-11-29T09:37:45.276Z,9.64
2022-11-29T09:38:45.356Z,9.68
2022-11-29T09:39:45.766Z,9.8
2022-11-29T09:40:45.377Z,9.85
2022-11-29T09:41:48.884Z,9.85
2022-11-29T09:42:45.519Z,9.87
2022-11-29T09:43:45.372Z,9.9
2022-11-29T09:44:46.027Z,9.89
2022-11-29T09:45:45.328Z,9.92
2022-11-29T09:46:45.402Z,9.95
2022-11-29T09:47:45.649Z,9.92
2022-11-29T09:48:45.270Z,9.85
2022-11-29T09:49:45.763Z,9.85
2022-11-29T09:50:45.348Z,9.91
2022-11-29T09:51:45.275Z,9.92
2022-11-29T09:52:48.287Z,9.9
2022-11-29T09:53:45.364Z,9.89
2022-11-29T09:54:45.995Z,9.9
2022-11-29T09:55:45.418Z,9.9
2022-11-29T09:56:45.377Z,9.84
2022-11-29T09:57:45.428Z,9.84
2022-11-29T09:58:45.331Z,9.85
2022-11-29T09:59:45.731Z,9.85
2022-11-29T10:00:45.359Z,9.86
2022-11-29T10:01:45.392Z,9.88
2022-11-29T10:02:45.785Z,9.87
2022-11-29T10:03:48.260Z,9.88
2022-11-29T10:04:45.882Z,9.87
2022-11-29T10:05:45.296Z,9.9
2022-11-29T10:06:45.294Z,9.93
2022-11-29T10:07:45.321Z,9.94
2022-11-29T10:08:45.292Z,9.96
2022-11-29T10:09:45.637Z,9.91
2022-11-29T10:10:45.354Z,9.89
2022-11-29T10:11:45.268Z,9.82
2022-11-29T10:12:45.263Z,9.84
2022-11-29T10:13:45.418Z,9.87
2022-11-29T10:14:45.920Z,9.93
2022-11-29T10:15:45.268Z,9.96
2022-11-29T10:16:45.412Z,9.98
2022-11-29T10:17:45.742Z,10.01
2022-11-29T10:18:45.392Z,10.04
2022-11-29T10:19:51.415Z,10.12
2022-11-29T10:20:49.039Z,10.17
2022-11-29T10:21:45.274Z,10.21
2022-11-29T10:22:45.421Z,10.26
2022-11-29T10:23:45.355Z,10.22
2022-11-29T10:24:45.987Z,10.21
2022-11-29T10:25:45.297Z,10.19
2022-11-29T10:26:46.916Z,10.09
2022-11-29T10:27:45.368Z,10.06
2022-11-29T10:28:45.276Z,10.06
2022-11-29T10:29:45.680Z,10.08
2022-11-29T10:30:48.437Z,10.14
2022-11-29T10:31:45.352Z,10.16
2022-11-29T10:32:45.710Z,10.2
2022-11-29T10:33:45.493Z,10.23
2022-11-29T10:34:45.894Z,10.23
2022-11-29T10:35:45.381Z,10.21
2022-11-29T10:36:45.268Z,10.16
2022-11-29T10:38:01.532Z,10.23
2022-11-29T10:38:45.266Z,10.3
2022-11-29T10:39:45.477Z,10.3
2022-11-29T10:40:45.299Z,10.31
2022-11-29T10:41:48.471Z,10.34
2022-11-29T10:42:45.371Z,10.42
2022-11-29T10:43:45.278Z,10.45
2022-11-29T10:44:45.959Z,10.48
2022-11-29T10:45:45.407Z,10.5
2022-11-29T10:46:45.284Z,10.53
2022-11-29T10:47:45.645Z,10.53
2022-11-29T10:48:45.266Z,10.51
2022-11-29T10:49:45.716Z,10.57
2022-11-29T10:50:45.359Z,10.6
2022-11-29T10:51:45.292Z,10.62
2022-11-29T10:52:48.331Z,10.6
2022-11-29T10:53:45.406Z,10.56
2022-11-29T10:54:46.085Z,10.61
2022-11-29T10:55:45.272Z,10.66
2022-11-29T10:56:45.292Z,10.7
2022-11-29T10:57:47.380Z,10.73
2022-11-29T10:58:45.283Z,10.76
2022-11-29T10:59:45.730Z,10.77
2022-11-29T11:00:45.361Z,10.8
2022-11-29T11:01:45.327Z,10.83
2022-11-29T11:02:45.719Z,10.85
2022-11-29T11:03:52.627Z,10.83
2022-11-29T11:04:46.079Z,10.79
2022-11-29T11:05:45.332Z,10.79
2022-11-29T11:06:45.315Z,10.75
2022-11-29T11:07:45.284Z,10.67
2022-11-29T11:08:45.397Z,10.65
2022-11-29T11:09:45.639Z,10.6
2022-11-29T11:10:49.655Z,10.59
2022-11-29T11:11:45.265Z,10.52
2022-11-29T11:12:45.309Z,10.48
2022-11-29T11:13:45.281Z,10.43
2022-11-29T11:14:51.326Z,10.41
2022-11-29T11:15:45.379Z,10.44
2022-11-29T11:16:45.322Z,10.48
2022-11-29T11:17:45.712Z,10.5
2022-11-29T11:18:45.392Z,10.53
2022-11-29T11:19:45.714Z,10.51
2022-11-29T11:20:45.260Z,10.52
2022-11-29T11:21:45.391Z,10.53
2022-11-29T11:22:45.270Z,10.52
2022-11-29T11:23:45.378Z,10.54
2022-11-29T11:24:45.633Z,10.57
2022-11-29T11:25:45.285Z,10.56
2022-11-29T11:26:45.300Z,10.53
2022-11-29T11:27:45.380Z,10.51
2022-11-29T11:28:45.390Z,10.52
2022-11-29T11:29:45.720Z,10.52
2022-11-29T11:30:48.352Z,10.51
2022-11-29T11:31:45.396Z,10.49
2022-11-29T11:32:45.711Z,10.51
2022-11-29T11:33:45.331Z,10.52
2022-11-29T11:34:45.932Z,10.53
2022-11-29T11:35:45.281Z,10.51
2022-11-29T11:36:45.276Z,10.52
2022-11-29T11:37:45.274Z,10.54
2022-11-29T11:38:45.269Z,10.55
2022-11-29T11:39:45.705Z,10.54
2022-11-29T11:40:45.358Z,10.46
2022-11-29T11:41:48.408Z,10.29
2022-11-29T11:42:45.387Z,10.12
2022-11-29T11:43:45.267Z,10
2022-11-29T11:44:47.301Z,10.01
2022-11-29T11:45:45.451Z,10.01
2022-11-29T11:46:45.341Z,9.94
2022-11-29T11:47:45.645Z,9.85
2022-11-29T11:48:45.270Z,9.85
2022-11-29T11:49:45.665Z,9.91
2022-11-29T11:50:45.487Z,10
2022-11-29T11:51:45.261Z,10.09
2022-11-29T11:52:50.687Z,10.12
2022-11-29T11:53:45.370Z,10.13
2022-11-29T11:54:46.003Z,10.13
2022-11-29T11:55:45.422Z,10.16
2022-11-29T11:56:45.303Z,10.21
2022-11-29T11:57:45.282Z,10.27
2022-11-29T11:58:45.278Z,10.31
2022-11-29T11:59:45.767Z,10.33
2022-11-29T12:01:03.493Z,10.33
2022-11-29T12:01:45.421Z,10.38
2022-11-29T12:02:45.777Z,10.4
2022-11-29T12:03:48.289Z,10.44
2022-11-29T12:04:45.799Z,10.47
2022-11-29T12:05:46.459Z,10.49
2022-11-29T12:06:45.267Z,10.48
2022-11-29T12:08:07.523Z,10.44
2022-11-29T12:08:45.373Z,10.43
2022-11-29T12:09:45.644Z,10.42
2022-11-29T12:10:45.284Z,10.43
2022-11-29T12:11:45.262Z,10.46
2022-11-29T12:12:45.272Z,10.54
2022-11-29T12:13:45.354Z,10.54
2022-11-29T12:14:51.358Z,10.54
2022-11-29T12:15:45.418Z,10.53
2022-11-29T12:16:45.291Z,10.49
2022-11-29T12:17:45.733Z,10.34
2022-11-29T12:18:45.361Z,10.15
2022-11-29T12:19:45.721Z,10.09
2022-11-29T12:20:45.279Z,10.09
2022-11-29T12:21:45.255Z,10.07
2022-11-29T12:22:48.455Z,10.02
2022-11-29T12:23:45.296Z,10.01
2022-11-29T12:24:45.948Z,10.04
2022-11-29T12:25:48.328Z,10.07
2022-11-29T12:26:57.422Z,10.16
2022-11-29T12:27:45.352Z,10.24
2022-11-29T12:28:45.455Z,10.32
2022-11-29T12:29:45.637Z,10.29
2022-11-29T12:30:45.500Z,10.26
2022-11-29T12:31:45.266Z,10.28
2022-11-29T12:32:45.722Z,10.33
2022-11-29T12:33:45.360Z,10.46
2022-11-29T12:34:45.705Z,10.46
2022-11-29T12:35:45.381Z,10.44
2022-11-29T12:36:48.362Z,10.38
2022-11-29T12:37:45.385Z,10.34
2022-11-29T12:38:45.293Z,10.35
2022-11-29T12:39:45.720Z,10.34
2022-11-29T12:40:45.355Z,10.38
2022-11-29T12:41:48.327Z,10.43
2022-11-29T12:42:45.363Z,10.45
2022-11-29T12:43:45.283Z,10.5
2022-11-29T12:44:46.170Z,10.54
2022-11-29T12:45:45.349Z,10.56
2022-11-29T12:46:45.435Z,10.51
2022-11-29T12:47:52.272Z,10.49
2022-11-29T12:48:45.370Z,10.51
2022-11-29T12:49:45.717Z,10.52
2022-11-29T12:50:45.391Z,10.46
2022-11-29T12:51:45.290Z,10.41
2022-11-29T12:52:45.308Z,10.41
2022-11-29T12:53:45.286Z,10.45
2022-11-29T12:54:45.919Z,10.5
2022-11-29T12:55:45.353Z,10.52
2022-11-29T12:56:45.348Z,10.54
2022-11-29T12:57:45.263Z,10.58
2022-11-29T12:58:46.239Z,10.64
2022-11-29T12:59:45.343Z,10.65
2022-11-29T13:00:45.267Z,10.61
2022-11-29T13:01:45.446Z,10.6
2022-11-29T13:02:45.756Z,10.56
2022-11-29T13:03:48.438Z,10.49
2022-11-29T13:04:45.993Z,10.42
2022-11-29T13:05:45.433Z,10.44
2022-11-29T13:06:45.282Z,10.45
2022-11-29T13:07:45.364Z,10.48
2022-11-29T13:08:45.292Z,10.49
2022-11-29T13:09:45.971Z,10.44
2022-11-29T13:10:45.270Z,10.41
2022-11-29T13:11:45.267Z,10.41
2022-11-29T13:12:45.498Z,10.51
2022-11-29T13:13:45.291Z,10.55
2022-11-29T13:14:51.395Z,10.55
2022-11-29T13:15:45.436Z,10.54
2022-11-29T13:16:45.327Z,10.57